Daily Weather Observations for Burdell (Townsville)
For Thursday 14th February 2019

This table is designed for ease of comparison to Bureau of Meteorology recorded weather data.

Station Details Name: BURDELL Lat: -19.24 Lon: 146.69 Height: 8.5 m
Date/Time
EST
Temp
°C
App
Temp
°C
Dew
Point
°C
Rel
Hum
%
Delta-T
°C
Wind Press
QNH
hPa
Press
MSL
hPa
Rain since
9am
mm
Dir  Spd
km/h
Gust
km/h
Spd
kts
Gust
kts
14/11:30pm 28.4 34.2 25.9 87 1.9 ESE 11 21 6 11 1008.8 1008.8 0.0
14/11:00pm 28.3 34.1 25.9 87 1.8 ESE 10 13 6 7 1008.6 1008.6 0.0
14/10:30pm 28.6 34.6 25.9 86 2.0 E 11 16 6 9 1008.4 1008.4 0.0
14/10:00pm 28.7 34.7 25.7 84 2.2 E 12 23 7 13 1008.0 1008.0 0.0
14/09:30pm 28.9 35.3 25.9 84 2.2 ESE 13 18 7 10 1007.6 1007.6 0.0
14/09:00pm 28.9 35.3 25.9 84 2.2 E 14 23 7 13 1007.0 1007.0 0.0
14/08:30pm 29.3 36.3 26.1 83 2.4 ESE 16 26 9 14 1006.6 1006.6 0.0
14/08:00pm 29.7 37.0 26.2 82 2.6 E 15 26 8 14 1006.2 1006.2 0.0
14/07:30pm 29.8 37.1 26.1 81 2.8 E 11 16 6 9 1005.5 1005.5 0.0
14/07:00pm 30.0 38.0 26.4 81 2.7 ENE 6 8 3 4 1004.9 1004.9 0.0
14/06:30pm 30.7 39.6 26.6 79 3.1 N 4 5 2 3 1004.3 1004.3 0.0
14/06:00pm 31.4 41.1 26.9 77 3.4 ENE 14 18 8 10 1003.8 1003.8 0.0
14/05:30pm 32.1 43.0 27.3 77 3.7 ENE 18 23 10 13 1003.4 1003.4 0.0
14/05:00pm 32.4 43.7 27.5 76 3.7 ENE 25 32 14 17 1003.0 1003.0 0.0
14/04:30pm 33.9 46.9 27.9 72 4.6 E 20 26 11 14 1002.8 1002.8 0.0
14/04:00pm 39.3 51.9 27.7 60 8.9 E 23 34 12 18 1002.8 1002.8 0.0
14/03:30pm 40.2 43.3 19.2 30 14.2 SSE 20 23 11 13 1002.5 1002.5 0.0
14/03:00pm 40.3 43.7 19.4 30 14.2 SSE 24 29 13 16 1002.4 1002.4 0.0
14/02:30pm 40.2 43.1 18.8 29 14.4 SSE 25 34 14 18 1002.8 1002.8 0.0
14/02:00pm 40.2 43.1 18.8 29 14.4 SSE 21 26 11 14 1002.9 1002.9 0.0
14/01:30pm 40.2 42.6 18.5 29 14.5 SSE 23 37 12 20 1003.2 1003.2 0.0
14/01:00pm 40.0 42.5 18.5 29 14.3 S 23 32 12 17 1003.6 1003.6 0.0
14/12:30pm 39.8 41.7 17.8 28 14.5 SSE 24 34 13 18 1003.8 1003.8 0.0
14/12:00pm 39.1 41.4 18.4 30 13.8 SSE 22 32 12 17 1004.5 1004.5 0.0
14/11:30am 39.2 41.0 17.8 29 14.1 S 18 26 10 14 1004.6 1004.6 0.0
14/11:00am 38.7 44.6 22.3 39 11.7 S 4 10 2 6 1004.8 1004.8 0.0
14/10:30am 37.2 42.5 22.1 42 10.7 SW 9 13 5 7 1005.1 1005.1 0.0
14/10:00am 36.2 41.5 22.4 45 9.8 SW 11 13 6 7 1005.0 1005.0 0.0
14/09:30am 35.1 40.1 22.4 48 9.0 SW 10 18 5 10 1005.1 1005.1 0.0
14/09:00am 34.2 38.4 22.1 50 8.6 WSW 4 8 2 4 1005.1 1005.1 0.0
14/08:30am 33.1 37.4 22.5 55 7.6 SW 6 8 3 4 1005.0 1005.0 0.0
14/08:00am 31.7 36.1 22.7 60 6.4 SSE 3 5 1 3 1004.9 1004.9 0.0
14/07:30am 29.9 34.2 21.9 63 5.7 SW 1 2 1 1 1004.7 1004.7 0.0
14/07:00am 28.2 32.3 21.2 66 4.9 WSW 1 3 1 2 1004.4 1004.4 0.0
14/06:30am 27.1 30.4 20.5 68 4.6 SW 5 5 3 3 1004.0 1004.0 0.0
14/06:00am 26.3 28.2 21.2 74 3.6 S 13 16 7 9 1003.9 1003.9 0.0
14/05:30am 26.2 29.2 20.3 70 4.1 S 6 8 3 4 1003.4 1003.4 0.0
14/05:00am 25.3 29.2 20.7 76 3.2 S 1 2 1 1 1003.0 1003.0 0.0
14/04:30am 26.0 29.9 20.8 74 3.6 S 2 5 1 3 1002.7 1002.7 0.0
14/04:00am 28.4 31.5 20.4 64 5.5 SSW 4 8 2 4 1002.5 1002.5 0.0
14/03:30am 27.7 29.7 18.8 60 6.0 S 6 13 4 7 1002.4 1002.4 0.0
14/03:00am 26.6 29.9 20.4 70 4.3 S 3 5 2 3 1002.4 1002.4 0.0
14/02:30am 25.8 29.5 20.4 73 3.7 SSW 1 2 1 1 1002.4 1002.4 0.0
14/02:00am 25.2 29.4 21.1 78 2.9 CALM 0 0 0 0 1002.5 1002.5 0.0
14/01:30am 25.2 29.3 20.9 77 3.0 CALM 0 0 0 0 1002.6 1002.6 0.0
14/01:00am 25.4 30.0 21.9 81 2.5 SE 1 5 1 3 1003.0 1003.0 0.0
14/12:30am 25.4 30.0 21.9 81 2.5 CALM 0 0 0 0 1003.1 1003.1 0.0
14/12:00am 25.8 30.8 22.6 83 2.3 CALM 0 0 0 0 1003.3 1003.3 0.0
 


NOTE: The apparent temperature specified in the table above is calculated using both the Heat Index and Steadman method. This differs to the Bureau of Meteorology's calculation which uses the Steadman method alone.